createdAt,value
2019-05-11T00:00:57.076Z,12.80
2019-05-11T00:03:26.989Z,12.80
2019-05-11T00:05:57.169Z,12.80
2019-05-11T00:08:27.306Z,12.90
2019-05-11T00:10:57.404Z,12.90
2019-05-11T00:13:27.537Z,12.80
2019-05-11T00:15:57.761Z,12.80
2019-05-11T00:18:27.921Z,12.90
2019-05-11T00:20:58.013Z,12.90
2019-05-11T00:23:28.172Z,12.90
2019-05-11T00:25:58.427Z,12.90
2019-05-11T00:28:28.370Z,12.90
2019-05-11T00:30:58.531Z,12.80
2019-05-11T00:33:28.452Z,12.80
2019-05-11T00:35:59.610Z,12.70
2019-05-11T00:38:29.670Z,12.70
2019-05-11T00:41:00.778Z,12.70
2019-05-11T00:43:30.901Z,12.60
2019-05-11T00:46:01.034Z,12.50
2019-05-11T00:48:30.862Z,12.50
2019-05-11T00:51:01.008Z,12.40
2019-05-11T00:53:30.897Z,12.50
2019-05-11T00:56:01.150Z,12.50
2019-05-11T00:58:31.291Z,12.50
2019-05-11T01:01:01.133Z,12.50
2019-05-11T01:03:31.212Z,12.50
2019-05-11T01:06:01.347Z,12.60
2019-05-11T01:08:32.300Z,12.60
2019-05-11T01:11:02.507Z,12.50
2019-05-11T01:13:32.632Z,12.60
2019-05-11T01:16:02.883Z,12.60
2019-05-11T01:18:33.044Z,12.60
2019-05-11T01:21:03.319Z,12.60
2019-05-11T01:23:33.330Z,12.60
2019-05-11T01:26:03.548Z,12.60
2019-05-11T01:28:33.843Z,12.60
2019-05-11T01:31:04.009Z,12.50
2019-05-11T01:33:34.163Z,12.50
2019-05-11T01:36:04.413Z,12.50
2019-05-11T01:38:34.235Z,12.50
2019-05-11T01:41:04.366Z,12.50
2019-05-11T01:43:35.548Z,12.50
2019-05-11T01:46:05.666Z,12.50
2019-05-11T01:48:35.836Z,12.50
2019-05-11T01:51:06.061Z,12.50
2019-05-11T01:53:37.228Z,12.50
2019-05-11T01:56:07.430Z,12.50
2019-05-11T01:58:37.737Z,12.50
2019-05-11T02:01:07.657Z,12.40
2019-05-11T02:03:38.714Z,12.40
2019-05-11T02:06:08.533Z,12.40
2019-05-11T02:08:38.695Z,12.40
2019-05-11T02:11:15.819Z,12.40
2019-05-11T02:13:40.619Z,12.30
2019-05-11T02:16:10.812Z,12.40
2019-05-11T02:18:41.019Z,12.40
2019-05-11T02:21:10.862Z,12.40
2019-05-11T02:23:42.000Z,12.40
2019-05-11T02:26:12.894Z,12.30
2019-05-11T02:28:43.014Z,12.30
2019-05-11T02:31:12.916Z,12.30
2019-05-11T02:33:43.052Z,12.30
2019-05-11T02:36:13.281Z,12.30
2019-05-11T02:38:43.452Z,12.30
2019-05-11T02:41:13.361Z,12.30
2019-05-11T02:43:43.482Z,12.40
2019-05-11T02:46:13.619Z,12.40
2019-05-11T02:48:43.810Z,12.40
2019-05-11T02:51:14.459Z,12.40
2019-05-11T02:53:45.994Z,12.50
2019-05-11T02:56:16.241Z,12.50
2019-05-11T02:58:46.462Z,12.50
2019-05-11T03:01:16.287Z,12.50
2019-05-11T03:03:46.282Z,12.50
2019-05-11T03:06:16.148Z,12.60
2019-05-11T03:08:46.324Z,12.60
2019-05-11T03:11:16.172Z,12.60
2019-05-11T03:13:46.301Z,12.60
2019-05-11T03:16:16.442Z,12.60
2019-05-11T03:18:46.563Z,12.60
2019-05-11T03:21:16.759Z,12.50
2019-05-11T03:23:46.910Z,12.50
2019-05-11T03:26:16.771Z,12.50
2019-05-11T03:28:46.837Z,12.50
2019-05-11T03:31:16.962Z,12.50
2019-05-11T03:33:47.000Z,12.50
2019-05-11T03:36:17.221Z,12.50
2019-05-11T03:38:47.123Z,12.40
2019-05-11T03:41:17.244Z,12.40
2019-05-11T03:43:48.311Z,12.40
2019-05-11T03:46:18.407Z,12.30
2019-05-11T03:48:48.543Z,12.30
2019-05-11T03:51:18.651Z,12.30
2019-05-11T03:53:48.816Z,12.30
2019-05-11T03:56:18.683Z,12.40
2019-05-11T03:58:48.841Z,12.40
2019-05-11T04:01:18.712Z,12.40
2019-05-11T04:03:48.870Z,12.50
2019-05-11T04:06:20.088Z,12.50
2019-05-11T04:08:50.226Z,12.60
2019-05-11T04:11:20.454Z,12.60
2019-05-11T04:13:50.606Z,12.60
2019-05-11T04:16:20.801Z,12.60
2019-05-11T04:18:50.653Z,12.60
2019-05-11T04:21:20.833Z,12.70
2019-05-11T04:23:50.915Z,12.70
2019-05-11T04:26:21.141Z,12.70
2019-05-11T04:28:51.300Z,12.80
2019-05-11T04:31:21.614Z,12.80
2019-05-11T04:33:51.837Z,12.80
2019-05-11T04:36:21.752Z,12.80
2019-05-11T04:38:51.992Z,12.80
2019-05-11T04:41:22.187Z,12.80
2019-05-11T04:43:52.303Z,12.80
2019-05-11T04:46:22.498Z,12.80
2019-05-11T04:48:52.718Z,12.80
2019-05-11T04:51:22.694Z,12.80
2019-05-11T04:53:52.879Z,12.80
2019-05-11T04:56:24.063Z,12.90
2019-05-11T04:58:54.375Z,12.90
2019-05-11T05:01:24.525Z,13.00
2019-05-11T05:03:57.727Z,13.10
2019-05-11T05:06:26.336Z,13.20
2019-05-11T05:08:58.268Z,13.30
2019-05-11T05:11:30.441Z,13.40
2019-05-11T05:14:02.116Z,13.50
2019-05-11T05:16:31.641Z,13.60
2019-05-11T05:19:01.562Z,13.70
2019-05-11T05:21:31.761Z,13.80
2019-05-11T05:24:01.959Z,13.90
2019-05-11T05:26:32.118Z,13.90
2019-05-11T05:29:02.405Z,14.00
2019-05-11T05:31:32.574Z,14.00
2019-05-11T05:34:02.415Z,14.10
2019-05-11T05:36:32.592Z,14.10
2019-05-11T05:39:03.216Z,14.10
2019-05-11T05:41:33.422Z,14.10
2019-05-11T05:44:03.623Z,14.10
2019-05-11T05:46:33.503Z,14.20
2019-05-11T05:49:03.676Z,14.20
2019-05-11T05:51:33.664Z,14.30
2019-05-11T05:54:04.040Z,14.30
2019-05-11T05:56:34.225Z,14.30
2019-05-11T05:59:04.519Z,14.40
2019-05-11T06:01:34.769Z,14.40
2019-05-11T06:04:04.954Z,14.40
2019-05-11T06:06:35.170Z,14.40
2019-05-11T06:09:06.787Z,14.50
2019-05-11T06:11:36.802Z,14.50
2019-05-11T06:14:07.008Z,14.50
2019-05-11T06:16:37.268Z,14.50
2019-05-11T06:19:07.427Z,14.50
2019-05-11T06:21:37.842Z,14.50
2019-05-11T06:24:08.616Z,14.60
2019-05-11T06:26:39.251Z,14.60
2019-05-11T06:29:09.172Z,14.70
2019-05-11T06:31:45.592Z,14.70
2019-05-11T06:34:35.164Z,14.80
2019-05-11T06:37:11.079Z,14.80
2019-05-11T06:40:00.648Z,14.90
2019-05-11T06:42:30.973Z,14.90
2019-05-11T06:45:20.647Z,15.10
2019-05-11T06:48:06.540Z,15.20
2019-05-11T06:50:40.347Z,15.30
2019-05-11T06:53:10.656Z,15.40
2019-05-11T06:55:42.228Z,15.50
2019-05-11T06:58:13.204Z,15.50
2019-05-11T07:00:43.320Z,15.60
2019-05-11T07:03:13.644Z,15.70
2019-05-11T07:05:43.605Z,15.80
2019-05-11T07:08:13.860Z,15.90
2019-05-11T07:10:44.131Z,16.00
2019-05-11T07:13:14.651Z,16.20
2019-05-11T07:15:44.759Z,16.30
2019-05-11T07:18:15.143Z,16.30
2019-05-11T07:20:50.857Z,16.40
2019-05-11T07:23:22.089Z,16.40
2019-05-11T07:25:52.466Z,16.50
2019-05-11T07:28:22.478Z,16.50
2019-05-11T07:30:54.593Z,16.40
2019-05-11T07:33:25.788Z,16.40
2019-05-11T07:35:58.125Z,16.40
2019-05-11T07:38:30.422Z,16.40
2019-05-11T07:40:59.760Z,16.40
2019-05-11T07:43:30.544Z,16.40
2019-05-11T07:46:00.388Z,16.40
2019-05-11T07:48:30.759Z,16.40
2019-05-11T07:51:01.019Z,16.30
2019-05-11T07:53:31.298Z,16.20
2019-05-11T07:56:01.859Z,16.20
2019-05-11T07:58:32.032Z,16.30
2019-05-11T08:01:04.681Z,16.50
2019-05-11T08:03:35.299Z,16.60
2019-05-11T08:06:05.232Z,16.70
2019-05-11T08:08:35.436Z,16.80
2019-05-11T08:11:07.939Z,16.90
2019-05-11T08:13:38.861Z,17.00
2019-05-11T08:16:09.132Z,17.20
2019-05-11T08:18:39.374Z,17.30
2019-05-11T08:21:09.250Z,17.40
2019-05-11T08:23:40.291Z,17.30
2019-05-11T08:26:12.308Z,17.30
2019-05-11T08:28:42.478Z,17.30
2019-05-11T08:31:12.666Z,17.30
2019-05-11T08:33:42.884Z,17.40
2019-05-11T08:36:12.989Z,17.70
2019-05-11T08:38:48.324Z,18.00
2019-05-11T08:41:18.651Z,18.30
2019-05-11T08:43:48.901Z,18.30
2019-05-11T08:46:19.032Z,18.20
2019-05-11T08:48:49.134Z,18.20
2019-05-11T08:51:19.063Z,18.20
2019-05-11T08:53:49.254Z,18.30
2019-05-11T08:56:19.602Z,18.30
2019-05-11T08:58:49.746Z,18.20
2019-05-11T09:01:20.035Z,18.10
2019-05-11T09:03:50.256Z,17.90
2019-05-11T09:06:20.524Z,17.80
2019-05-11T09:08:50.435Z,17.70
2019-05-11T09:11:20.831Z,17.80
2019-05-11T09:13:52.333Z,17.90
2019-05-11T09:16:22.534Z,17.90
2019-05-11T09:18:52.439Z,17.90
2019-05-11T09:21:22.632Z,17.90
2019-05-11T09:23:52.883Z,17.60
2019-05-11T09:26:23.424Z,17.50
2019-05-11T09:28:58.039Z,17.30
2019-05-11T09:31:29.105Z,17.10
2019-05-11T09:33:59.324Z,16.90
2019-05-11T09:36:29.354Z,16.90
2019-05-11T09:39:00.081Z,17.00
2019-05-11T09:41:30.314Z,17.50
2019-05-11T09:44:00.439Z,17.60
2019-05-11T09:46:30.577Z,17.80
2019-05-11T09:49:01.132Z,18.00
2019-05-11T09:51:31.431Z,18.30
2019-05-11T09:54:01.530Z,18.30
2019-05-11T09:56:31.696Z,18.30
2019-05-11T09:59:01.977Z,18.20
2019-05-11T10:01:32.437Z,18.10
2019-05-11T10:04:02.739Z,18.10
2019-05-11T10:06:33.805Z,18.30
2019-05-11T10:09:08.170Z,18.50
2019-05-11T10:11:39.877Z,18.50
2019-05-11T10:14:09.994Z,18.50
2019-05-11T10:16:39.903Z,18.30
2019-05-11T10:19:10.193Z,18.10
2019-05-11T10:21:40.409Z,18.00
2019-05-11T10:24:10.677Z,18.10
2019-05-11T10:26:40.806Z,18.20
2019-05-11T10:29:11.151Z,18.40
2019-05-11T10:31:41.162Z,18.40
2019-05-11T10:34:11.247Z,18.30
2019-05-11T10:36:41.186Z,18.40
2019-05-11T10:39:11.587Z,18.40
2019-05-11T10:41:41.832Z,18.50
2019-05-11T10:47:09.985Z,18.80
2019-05-11T10:49:40.437Z,18.80
2019-05-11T10:52:10.664Z,18.80
2019-05-11T10:54:40.545Z,18.60
2019-05-11T10:57:10.864Z,18.60
2019-05-11T10:59:41.211Z,18.60
2019-05-11T11:02:11.568Z,18.60
2019-05-11T11:04:41.728Z,18.40
2019-05-11T11:07:12.063Z,18.40
2019-05-11T11:09:45.041Z,18.40
2019-05-11T11:12:15.184Z,18.80
2019-05-11T11:14:45.052Z,19.00
2019-05-11T11:17:15.298Z,19.00
2019-05-11T11:19:45.552Z,19.00
2019-05-11T11:22:35.055Z,18.90
2019-05-11T11:24:48.145Z,18.70
2019-05-11T11:27:18.630Z,18.70
2019-05-11T11:29:48.775Z,19.00
2019-05-11T11:32:18.751Z,19.20
2019-05-11T11:34:48.994Z,19.20
2019-05-11T11:37:19.204Z,19.10
2019-05-11T11:39:49.482Z,19.00
2019-05-11T11:42:19.671Z,18.80
2019-05-11T11:44:49.767Z,18.70
2019-05-11T11:47:21.823Z,18.70
2019-05-11T11:49:52.196Z,18.50
2019-05-11T11:52:27.566Z,18.50
2019-05-11T11:54:58.641Z,18.50
2019-05-11T11:57:29.068Z,18.40
2019-05-11T11:59:58.913Z,18.50
2019-05-11T12:02:29.033Z,18.50
2019-05-11T12:04:59.312Z,18.60
2019-05-11T12:07:29.224Z,18.90
2019-05-11T12:09:59.092Z,19.10
2019-05-11T12:12:29.058Z,19.20
2019-05-11T12:14:59.030Z,19.40
2019-05-11T12:17:29.324Z,19.60
2019-05-11T12:19:59.403Z,19.70
2019-05-11T12:22:29.276Z,19.80
2019-05-11T12:24:59.455Z,19.80
2019-05-11T12:27:29.712Z,19.70
2019-05-11T12:30:22.875Z,19.40
2019-05-11T12:32:57.560Z,19.00
2019-05-11T12:35:28.499Z,18.80
2019-05-11T12:37:58.970Z,19.00
2019-05-11T12:40:28.948Z,19.40
2019-05-11T12:42:59.230Z,19.50
2019-05-11T12:45:29.722Z,19.50
2019-05-11T12:47:59.976Z,19.60
2019-05-11T12:50:30.174Z,19.60
2019-05-11T12:53:08.275Z,19.70
2019-05-11T12:55:38.704Z,19.70
2019-05-11T12:58:08.918Z,19.50
2019-05-11T13:00:39.396Z,19.20
2019-05-11T13:03:09.902Z,19.00
2019-05-11T13:05:43.378Z,18.90
2019-05-11T13:08:13.880Z,19.00
2019-05-11T13:10:43.847Z,19.50
2019-05-11T13:13:14.163Z,20.10
2019-05-11T13:15:44.288Z,20.30
2019-05-11T13:18:14.682Z,20.50
2019-05-11T13:20:45.135Z,20.50
2019-05-11T13:23:18.343Z,20.30
2019-05-11T13:25:48.301Z,19.90
2019-05-11T13:28:18.748Z,19.50
2019-05-11T13:30:49.042Z,19.20
2019-05-11T13:33:19.484Z,18.80
2019-05-11T13:35:49.560Z,18.70
2019-05-11T13:38:20.353Z,18.50
2019-05-11T13:40:50.700Z,18.20
2019-05-11T13:43:21.073Z,18.00
2019-05-11T13:45:51.087Z,17.70
2019-05-11T13:48:21.995Z,17.60
2019-05-11T13:50:52.461Z,17.40
2019-05-11T13:53:24.307Z,17.20
2019-05-11T13:55:54.563Z,17.00
2019-05-11T13:58:24.797Z,16.80
2019-05-11T14:00:55.320Z,16.60
2019-05-11T14:03:27.709Z,16.40
2019-05-11T14:05:58.244Z,16.30
2019-05-11T14:08:28.292Z,16.20
2019-05-11T14:10:59.655Z,16.20
2019-05-11T14:13:32.629Z,16.10
2019-05-11T14:16:03.221Z,16.10
2019-05-11T14:18:34.003Z,16.00
2019-05-11T14:21:04.239Z,15.90
2019-05-11T14:23:34.377Z,15.80
2019-05-11T14:26:04.396Z,15.80
2019-05-11T14:28:34.670Z,15.80
2019-05-11T14:31:05.070Z,15.70
2019-05-11T14:33:38.578Z,15.70
2019-05-11T14:36:09.116Z,15.70
2019-05-11T14:38:39.330Z,15.80
2019-05-11T14:41:09.537Z,15.80
2019-05-11T14:43:39.737Z,15.80
2019-05-11T14:46:10.097Z,15.60
2019-05-11T14:48:41.775Z,15.60
2019-05-11T14:51:11.938Z,15.50
2019-05-11T14:53:42.137Z,15.40
2019-05-11T14:56:11.989Z,15.30
2019-05-11T14:58:42.157Z,15.20
2019-05-11T15:01:14.714Z,15.20
2019-05-11T15:03:44.169Z,15.00
2019-05-11T15:06:14.432Z,14.90
2019-05-11T15:08:44.700Z,14.70
2019-05-11T15:11:14.622Z,14.60
2019-05-11T15:13:44.816Z,14.60
2019-05-11T15:16:18.454Z,14.40
2019-05-11T15:18:48.501Z,14.20
2019-05-11T15:21:19.188Z,14.00
2019-05-11T15:23:49.259Z,13.90
2019-05-11T15:26:19.621Z,13.90
2019-05-11T15:28:49.849Z,13.80
2019-05-11T15:31:22.524Z,13.70
2019-05-11T15:33:52.086Z,13.70
2019-05-11T15:36:22.492Z,13.60
2019-05-11T15:38:52.500Z,13.50
2019-05-11T15:41:22.716Z,13.50
2019-05-11T15:43:52.919Z,13.50
2019-05-11T15:46:23.289Z,13.50
2019-05-11T15:49:00.412Z,13.40
2019-05-11T15:51:25.245Z,13.40
2019-05-11T15:53:55.375Z,13.40
2019-05-11T15:56:27.845Z,13.30
2019-05-11T15:58:57.808Z,13.30
2019-05-11T16:01:28.887Z,13.20
2019-05-11T16:03:59.185Z,13.20
2019-05-11T16:06:29.315Z,13.20
2019-05-11T16:08:59.641Z,13.10
2019-05-11T16:11:29.663Z,13.10
2019-05-11T16:14:00.027Z,13.10
2019-05-11T16:16:30.810Z,13.10
2019-05-11T16:19:13.533Z,13.10
2019-05-11T16:21:37.614Z,13.10
2019-05-11T16:24:08.113Z,13.00
2019-05-11T16:26:38.439Z,12.90
2019-05-11T16:29:11.473Z,12.90
2019-05-11T16:31:40.653Z,12.80
2019-05-11T16:34:12.487Z,12.80
2019-05-11T16:36:42.424Z,12.70
2019-05-11T16:39:12.323Z,12.60
2019-05-11T16:41:42.603Z,12.60
2019-05-11T16:44:12.571Z,12.60
2019-05-11T16:46:48.031Z,12.50
2019-05-11T16:49:26.236Z,12.50
2019-05-11T16:51:49.608Z,12.50
2019-05-11T16:54:19.797Z,12.40
2019-05-11T16:56:49.878Z,12.40
2019-05-11T16:59:20.084Z,12.40
2019-05-11T17:01:50.029Z,12.40
2019-05-11T17:04:19.980Z,12.40
2019-05-11T17:06:49.908Z,12.30
2019-05-11T17:09:20.182Z,12.40
2019-05-11T17:11:50.513Z,12.40
2019-05-11T17:14:20.604Z,12.40
2019-05-11T17:16:50.895Z,12.40
2019-05-11T17:19:20.865Z,12.40
2019-05-11T17:21:51.244Z,12.30
2019-05-11T17:24:21.472Z,12.30
2019-05-11T17:26:51.461Z,12.30
2019-05-11T17:29:21.734Z,12.20
2019-05-11T17:31:52.374Z,12.30
2019-05-11T17:34:22.454Z,12.30
2019-05-11T17:36:57.867Z,12.30
2019-05-11T17:39:28.370Z,12.30
2019-05-11T17:41:58.580Z,12.30
2019-05-11T17:44:29.795Z,12.20
2019-05-11T17:47:00.154Z,12.10
2019-05-11T17:49:30.383Z,12.10
2019-05-11T17:52:00.660Z,12.10
2019-05-11T17:54:30.993Z,12.10
2019-05-11T17:57:01.281Z,12.00
2019-05-11T17:59:31.387Z,12.00
2019-05-11T18:02:01.536Z,11.90
2019-05-11T18:04:31.874Z,11.90
2019-05-11T18:07:02.545Z,11.90
2019-05-11T18:09:32.936Z,11.80
2019-05-11T18:12:04.130Z,11.80
2019-05-11T18:14:36.143Z,11.80
2019-05-11T18:17:06.478Z,11.70
2019-05-11T18:19:36.771Z,11.70
2019-05-11T18:22:08.335Z,11.60
2019-05-11T18:24:38.822Z,11.70
2019-05-11T18:27:08.818Z,11.60
2019-05-11T18:29:39.173Z,11.60
2019-05-11T18:32:09.503Z,11.60
2019-05-11T18:34:39.478Z,11.60
2019-05-11T18:37:09.467Z,11.50
2019-05-11T18:39:39.431Z,11.50
2019-05-11T18:42:10.049Z,11.50
2019-05-11T18:44:40.402Z,11.40
2019-05-11T18:47:10.385Z,11.40
2019-05-11T18:49:40.365Z,11.40
2019-05-11T18:52:10.706Z,11.40
2019-05-11T18:54:41.001Z,11.30
2019-05-11T18:57:11.383Z,11.30
2019-05-11T18:59:41.588Z,11.20
2019-05-11T19:02:11.856Z,11.20
2019-05-11T19:04:42.065Z,11.20
2019-05-11T19:07:16.863Z,11.20
2019-05-11T19:09:43.690Z,11.20
2019-05-11T19:12:15.036Z,11.20
2019-05-11T19:14:45.087Z,11.10
2019-05-11T19:17:19.013Z,11.10
2019-05-11T19:19:49.015Z,11.10
2019-05-11T19:22:19.114Z,11.00
2019-05-11T19:24:49.432Z,11.00
2019-05-11T19:27:19.761Z,11.00
2019-05-11T19:29:50.146Z,11.00
2019-05-11T19:32:20.460Z,11.00
2019-05-11T19:34:50.806Z,11.00
2019-05-11T19:37:21.230Z,11.00
2019-05-11T19:39:51.435Z,10.90
2019-05-11T19:42:21.714Z,10.90
2019-05-11T19:44:52.223Z,10.90
2019-05-11T19:47:22.658Z,10.80
2019-05-11T19:49:52.867Z,10.80
2019-05-11T19:52:23.004Z,10.80
2019-05-11T19:54:53.357Z,10.80
2019-05-11T19:57:23.680Z,10.80
2019-05-11T19:59:54.159Z,10.70
2019-05-11T20:02:24.551Z,10.70
2019-05-11T20:04:54.707Z,10.70
2019-05-11T20:07:24.916Z,10.80
2019-05-11T20:09:54.978Z,10.70
2019-05-11T20:12:25.178Z,10.70
2019-05-11T20:14:55.532Z,10.70
2019-05-11T20:17:25.593Z,10.70
2019-05-11T20:19:58.109Z,10.70
2019-05-11T20:22:28.187Z,10.70
2019-05-11T20:24:58.619Z,10.70
2019-05-11T20:27:28.676Z,10.70
2019-05-11T20:29:58.975Z,10.60
2019-05-11T20:32:29.288Z,10.70
2019-05-11T20:34:59.606Z,10.60
2019-05-11T20:37:29.604Z,10.60
2019-05-11T20:40:00.021Z,10.60
2019-05-11T20:42:31.476Z,10.50
2019-05-11T20:45:01.978Z,10.50
2019-05-11T20:47:33.470Z,10.50
2019-05-11T20:50:05.035Z,10.50
2019-05-11T20:52:35.462Z,10.50
2019-05-11T20:55:08.839Z,10.50
2019-05-11T20:57:39.717Z,10.40
2019-05-11T21:00:11.442Z,10.40
2019-05-11T21:02:42.080Z,10.40
2019-05-11T21:05:12.417Z,10.40
2019-05-11T21:07:42.685Z,10.40
2019-05-11T21:10:13.063Z,10.40
2019-05-11T21:12:43.428Z,10.30
2019-05-11T21:15:13.654Z,10.30
2019-05-11T21:17:44.018Z,10.30
2019-05-11T21:20:14.036Z,10.30
2019-05-11T21:22:43.989Z,10.30
2019-05-11T21:25:14.675Z,10.30
2019-05-11T21:27:44.713Z,10.30
2019-05-11T21:30:15.146Z,10.30
2019-05-11T21:32:47.673Z,10.30
2019-05-11T21:35:19.234Z,10.20
2019-05-11T21:37:49.176Z,10.20
2019-05-11T21:40:19.506Z,10.10
2019-05-11T21:42:49.652Z,10.10
2019-05-11T21:45:19.971Z,10.20
2019-05-11T21:47:50.315Z,10.20
2019-05-11T21:50:20.722Z,10.20
2019-05-11T21:52:53.798Z,10.20
2019-05-11T21:55:22.598Z,10.20
2019-05-11T21:57:52.972Z,10.20
2019-05-11T22:00:28.520Z,10.20
2019-05-11T22:03:10.292Z,10.20
2019-05-11T22:05:40.792Z,10.10
2019-05-11T22:08:10.837Z,10.20
2019-05-11T22:10:40.799Z,10.10
2019-05-11T22:13:11.121Z,10.10
2019-05-11T22:15:42.174Z,10.10
2019-05-11T22:18:26.583Z,10.10
2019-05-11T22:20:44.338Z,10.10
2019-05-11T22:23:18.316Z,10.10
2019-05-11T22:26:07.988Z,10.10
2019-05-11T22:28:38.980Z,10.20
2019-05-11T22:31:09.295Z,10.20
2019-05-11T22:33:40.441Z,10.20
2019-05-11T22:36:10.689Z,10.20
2019-05-11T22:38:40.883Z,10.20
2019-05-11T22:41:10.871Z,10.30
2019-05-11T22:43:40.912Z,10.30
2019-05-11T22:46:10.906Z,10.30
2019-05-11T22:48:41.053Z,10.30
2019-05-11T22:51:11.329Z,10.40
2019-05-11T22:53:46.713Z,10.40
2019-05-11T22:56:13.529Z,10.40
2019-05-11T22:58:43.394Z,10.40
2019-05-11T23:01:13.593Z,10.40
2019-05-11T23:03:43.802Z,10.40
2019-05-11T23:06:14.156Z,10.40
2019-05-11T23:08:44.070Z,10.40
2019-05-11T23:11:14.300Z,10.40
2019-05-11T23:13:47.695Z,10.40
2019-05-11T23:16:18.109Z,10.30
2019-05-11T23:18:48.303Z,10.20
2019-05-11T23:21:18.174Z,10.20
2019-05-11T23:23:48.152Z,10.20
2019-05-11T23:26:18.072Z,10.00
2019-05-11T23:28:48.706Z,10.00
2019-05-11T23:31:18.736Z,10.00
2019-05-11T23:33:49.005Z,10.00
2019-05-11T23:36:18.942Z,10.00
2019-05-11T23:38:49.172Z,10.00
2019-05-11T23:41:24.469Z,10.00
2019-05-11T23:43:52.903Z,10.00
2019-05-11T23:46:23.285Z,9.90
2019-05-11T23:48:53.385Z,9.90
2019-05-11T23:51:23.533Z,9.90
2019-05-11T23:53:53.733Z,9.90
2019-05-11T23:56:23.692Z,9.80
2019-05-11T23:58:53.902Z,9.80
